sensor_id;sensor_type;location;lat;lon;timestamp;pressure;altitude;pressure_sealevel;temperature;humidity
57056;BME280;42945;51.718;5.324;2022-08-19T00:01:03;100999.94;;;15.75;100.00
57056;BME280;42945;51.718;5.324;2022-08-19T00:06:53;101124.81;;;16.44;100.00
57056;BME280;42945;51.718;5.324;2022-08-19T00:12:42;101109.59;;;16.22;100.00
57056;BME280;42945;51.718;5.324;2022-08-19T00:18:31;101182.38;;;16.38;100.00
57056;BME280;42945;51.718;5.324;2022-08-19T00:24:20;101098.31;;;16.41;100.00
57056;BME280;42945;51.718;5.324;2022-08-19T00:30:09;101135.16;;;16.37;100.00
57056;BME280;42945;51.718;5.324;2022-08-19T00:36:04;101106.31;;;16.29;100.00
57056;BME280;42945;51.718;5.324;2022-08-19T00:41:53;101148.91;;;16.44;100.00
57056;BME280;42945;51.718;5.324;2022-08-19T00:51:45;101086.09;;;16.14;100.00
57056;BME280;42945;51.718;5.324;2022-08-19T00:57:38;101132.06;;;16.08;100.00
57056;BME280;42945;51.718;5.324;2022-08-19T01:03:27;101143.50;;;16.10;100.00
57056;BME280;42945;51.718;5.324;2022-08-19T01:09:15;101031.41;;;15.47;100.00
57056;BME280;42945;51.718;5.324;2022-08-19T01:15:05;101096.44;;;16.07;100.00
57056;BME280;42945;51.718;5.324;2022-08-19T01:20:56;101025.59;;;15.29;100.00
57056;BME280;42945;51.718;5.324;2022-08-19T01:26:46;101129.50;;;16.06;100.00
57056;BME280;42945;51.718;5.324;2022-08-19T01:32:34;101158.06;;;16.06;100.00
57056;BME280;42945;51.718;5.324;2022-08-19T01:38:25;100760.72;;;15.90;100.00
57056;BME280;42945;51.718;5.324;2022-08-19T01:44:20;101014.00;;;15.18;100.00
57056;BME280;42945;51.718;5.324;2022-08-19T01:54:15;101114.81;;;15.77;100.00
57056;BME280;42945;51.718;5.324;2022-08-19T02:00:11;101186.25;;;16.34;100.00
57056;BME280;42945;51.718;5.324;2022-08-19T02:06:01;101078.97;;;15.66;100.00
57056;BME280;42945;51.718;5.324;2022-08-19T02:11:50;101123.03;;;15.73;100.00
57056;BME280;42945;51.718;5.324;2022-08-19T02:17:40;101018.50;;;14.93;100.00
57056;BME280;42945;51.718;5.324;2022-08-19T02:23:30;101127.25;;;15.65;100.00
57056;BME280;42945;51.718;5.324;2022-08-19T02:29:18;101119.78;;;15.57;100.00
57056;BME280;42945;51.718;5.324;2022-08-19T02:35:07;101113.00;;;15.64;100.00
57056;BME280;42945;51.718;5.324;2022-08-19T02:40:59;101150.00;;;15.70;100.00
57056;BME280;42945;51.718;5.324;2022-08-19T02:46:48;100784.75;;;15.56;100.00
57056;BME280;42945;51.718;5.324;2022-08-19T02:56:40;101152.59;;;15.59;100.00
57056;BME280;42945;51.718;5.324;2022-08-19T03:02:29;101027.09;;;14.85;100.00
57056;BME280;42945;51.718;5.324;2022-08-19T03:08:19;101151.22;;;15.53;100.00
57056;BME280;42945;51.718;5.324;2022-08-19T03:14:09;101118.25;;;15.42;100.00
57056;BME280;42945;51.718;5.324;2022-08-19T03:19:58;101214.25;;;16.06;100.00
57056;BME280;42945;51.718;5.324;2022-08-19T03:25:47;101113.00;;;15.40;100.00
57056;BME280;42945;51.718;5.324;2022-08-19T03:31:35;101046.78;;;14.59;100.00
57056;BME280;42945;51.718;5.324;2022-08-19T03:37:24;101300.00;;;15.91;100.00
57056;BME280;42945;51.718;5.324;2022-08-19T03:43:11;101118.34;;;15.40;100.00
57056;BME280;42945;51.718;5.324;2022-08-19T03:49:03;101139.72;;;15.16;100.00
57056;BME280;42945;51.718;5.324;2022-08-19T04:09:29;115322.03;;;99.12;100.00
57056;BME280;42945;51.718;5.324;2022-08-19T04:15:17;101478.56;;;15.49;100.00
57056;BME280;42945;51.718;5.324;2022-08-19T04:21:07;101003.25;;;14.20;100.00
57056;BME280;42945;51.718;5.324;2022-08-19T04:26:55;100962.41;;;14.06;100.00
57056;BME280;42945;51.718;5.324;2022-08-19T04:32:43;101128.94;;;14.92;100.00
57056;BME280;42945;51.718;5.324;2022-08-19T04:38:32;100979.00;;;14.35;100.00
57056;BME280;42945;51.718;5.324;2022-08-19T04:44:26;101191.06;;;15.69;100.00
57056;BME280;42945;51.718;5.324;2022-08-19T04:50:18;101162.59;;;14.94;100.00
57056;BME280;42945;51.718;5.324;2022-08-19T04:56:11;101100.22;;;14.95;100.00
57056;BME280;42945;51.718;5.324;2022-08-19T05:01:59;100992.78;;;14.29;100.00
57056;BME280;42945;51.718;5.324;2022-08-19T05:07:48;101151.50;;;14.88;100.00
57056;BME280;42945;51.718;5.324;2022-08-19T05:13:36;101121.88;;;15.04;100.00
57056;BME280;42945;51.718;5.324;2022-08-19T05:19:24;101183.75;;;15.10;100.00
57056;BME280;42945;51.718;5.324;2022-08-19T05:25:30;101170.25;;;15.12;100.00
57056;BME280;42945;51.718;5.324;2022-08-19T05:31:19;101146.63;;;15.19;100.00
57056;BME280;42945;51.718;5.324;2022-08-19T05:37:42;101171.13;;;15.12;100.00
57056;BME280;42945;51.718;5.324;2022-08-19T05:43:30;101049.53;;;14.70;100.00
57056;BME280;42945;51.718;5.324;2022-08-19T05:49:21;101114.09;;;15.38;100.00
57056;BME280;42945;51.718;5.324;2022-08-19T05:55:09;101231.91;;;15.84;100.00
57056;BME280;42945;51.718;5.324;2022-08-19T06:00:59;101163.56;;;15.67;100.00
57056;BME280;42945;51.718;5.324;2022-08-19T06:06:53;101028.28;;;15.05;100.00
57056;BME280;42945;51.718;5.324;2022-08-19T06:12:42;101151.88;;;15.81;100.00
57056;BME280;42945;51.718;5.324;2022-08-19T06:18:30;100961.44;;;14.94;100.00
57056;BME280;42945;51.718;5.324;2022-08-19T06:24:21;101185.78;;;16.05;100.00
57056;BME280;42945;51.718;5.324;2022-08-19T06:30:13;130183.69;;;191.27;100.00
57056;BME280;42945;51.718;5.324;2022-08-19T06:40:03;101097.44;;;15.34;100.00
57056;BME280;42945;51.718;5.324;2022-08-19T06:45:51;101177.47;;;16.21;100.00
57056;BME280;42945;51.718;5.324;2022-08-19T06:51:45;101016.00;;;15.62;100.00
57056;BME280;42945;51.718;5.324;2022-08-19T06:57:37;101052.28;;;15.42;100.00
57056;BME280;42945;51.718;5.324;2022-08-19T07:03:24;101096.97;;;15.40;100.00
57056;BME280;42945;51.718;5.324;2022-08-19T07:09:14;104602.50;;;36.29;100.00
57056;BME280;42945;51.718;5.324;2022-08-19T07:15:06;101166.91;;;16.30;100.00
57056;BME280;42945;51.718;5.324;2022-08-19T07:21:08;101162.44;;;16.42;100.00
57056;BME280;42945;51.718;5.324;2022-08-19T07:26:58;101101.31;;;15.78;100.00
57056;BME280;42945;51.718;5.324;2022-08-19T07:32:47;101102.66;;;15.84;100.00
57056;BME280;42945;51.718;5.324;2022-08-19T07:42:36;101027.59;;;16.43;100.00
57056;BME280;42945;51.718;5.324;2022-08-19T07:48:27;101076.53;;;15.87;100.00
57056;BME280;42945;51.718;5.324;2022-08-19T07:54:16;101253.16;;;16.69;100.00
57056;BME280;42945;51.718;5.324;2022-08-19T08:00:05;101113.09;;;16.22;100.00
57056;BME280;42945;51.718;5.324;2022-08-19T08:05:53;101112.91;;;16.59;100.00
57056;BME280;42945;51.718;5.324;2022-08-19T08:12:05;101162.94;;;17.49;100.00
57056;BME280;42945;51.718;5.324;2022-08-19T08:17:54;101148.25;;;17.09;99.87
57056;BME280;42945;51.718;5.324;2022-08-19T08:23:43;101317.59;;;18.05;99.02
57056;BME280;42945;51.718;5.324;2022-08-19T08:29:31;101148.34;;;16.63;99.54
57056;BME280;42945;51.718;5.324;2022-08-19T08:35:22;101257.66;;;17.38;100.00
57056;BME280;42945;51.718;5.324;2022-08-19T08:45:14;100788.44;;;17.07;99.30
57056;BME280;42945;51.718;5.324;2022-08-19T08:51:10;101234.06;;;17.87;97.10
57056;BME280;42945;51.718;5.324;2022-08-19T08:56:58;101254.84;;;18.17;97.15
57056;BME280;42945;51.718;5.324;2022-08-19T09:02:47;101175.25;;;17.51;95.31
57056;BME280;42945;51.718;5.324;2022-08-19T09:08:52;101258.97;;;18.21;95.65
57056;BME280;42945;51.718;5.324;2022-08-19T09:15:01;101141.03;;;17.87;93.46
57056;BME280;42945;51.718;5.324;2022-08-19T09:20:50;101339.06;;;19.23;94.25
57056;BME280;42945;51.718;5.324;2022-08-19T09:26:37;101212.78;;;18.81;92.62
57056;BME280;42945;51.718;5.324;2022-08-19T09:32:26;101233.06;;;19.16;91.13
57056;BME280;42945;51.718;5.324;2022-08-19T09:38:14;101226.41;;;19.20;89.41
57056;BME280;42945;51.718;5.324;2022-08-19T09:48:02;101218.22;;;19.62;88.60
57056;BME280;42945;51.718;5.324;2022-08-19T09:53:52;100791.00;;;19.18;87.84
57056;BME280;42945;51.718;5.324;2022-08-19T09:59:41;101099.25;;;18.88;89.30
57056;BME280;42945;51.718;5.324;2022-08-19T10:05:30;101274.22;;;19.47;88.53
57056;BME280;42945;51.718;5.324;2022-08-19T10:11:39;101153.75;;;19.00;86.86
57056;BME280;42945;51.718;5.324;2022-08-19T10:17:28;101276.50;;;19.52;87.64
57056;BME280;42945;51.718;5.324;2022-08-19T10:23:16;101273.31;;;19.27;88.80
57056;BME280;42945;51.718;5.324;2022-08-19T10:29:05;101203.41;;;19.97;86.93
57056;BME280;42945;51.718;5.324;2022-08-19T10:34:53;101242.91;;;19.77;85.89
57056;BME280;42945;51.718;5.324;2022-08-19T10:40:41;101092.72;;;19.61;83.65
57056;BME280;42945;51.718;5.324;2022-08-19T10:50:29;101205.56;;;21.82;77.85
57056;BME280;42945;51.718;5.324;2022-08-19T10:56:37;101127.22;;;21.00;77.85
57056;BME280;42945;51.718;5.324;2022-08-19T11:02:43;101244.31;;;22.45;75.32
57056;BME280;42945;51.718;5.324;2022-08-19T11:08:34;101125.66;;;21.26;75.26
57056;BME280;42945;51.718;5.324;2022-08-19T11:14:23;101230.13;;;22.07;75.01
57056;BME280;42945;51.718;5.324;2022-08-19T11:20:14;101112.56;;;22.20;73.21
57056;BME280;42945;51.718;5.324;2022-08-19T11:26:06;101232.28;;;22.39;73.22
57056;BME280;42945;51.718;5.324;2022-08-19T11:31:54;101095.28;;;21.41;74.13
57056;BME280;42945;51.718;5.324;2022-08-19T11:37:47;101238.81;;;23.67;69.46
57056;BME280;42945;51.718;5.324;2022-08-19T11:43:39;101086.81;;;23.62;69.12
57056;BME280;42945;51.718;5.324;2022-08-19T11:53:29;101107.13;;;22.65;69.94
57056;BME280;42945;51.718;5.324;2022-08-19T11:59:17;101195.97;;;23.20;71.52
57056;BME280;42945;51.718;5.324;2022-08-19T12:05:09;101193.13;;;23.22;69.97
57056;BME280;42945;51.718;5.324;2022-08-19T12:11:05;101136.41;;;22.25;70.53
57056;BME280;42945;51.718;5.324;2022-08-19T12:16:56;101102.00;;;22.53;69.10
57056;BME280;42945;51.718;5.324;2022-08-19T12:22:44;101220.44;;;23.45;70.46
57056;BME280;42945;51.718;5.324;2022-08-19T12:28:32;101086.38;;;22.21;72.07
57056;BME280;42945;51.718;5.324;2022-08-19T12:34:21;101196.09;;;22.32;73.33
57056;BME280;42945;51.718;5.324;2022-08-19T12:40:09;101122.91;;;21.08;75.42
57056;BME280;42945;51.718;5.324;2022-08-19T12:45:59;101185.09;;;22.15;75.72
57056;BME280;42945;51.718;5.324;2022-08-19T12:55:54;101209.13;;;22.36;74.67
57056;BME280;42945;51.718;5.324;2022-08-19T13:01:44;101166.31;;;22.76;71.60
57056;BME280;42945;51.718;5.324;2022-08-19T13:07:32;101192.34;;;22.77;72.43
57056;BME280;42945;51.718;5.324;2022-08-19T13:13:20;101211.59;;;22.48;74.36
57056;BME280;42945;51.718;5.324;2022-08-19T13:19:10;101011.06;;;20.56;66.12
57056;BME280;42945;51.718;5.324;2022-08-19T13:24:59;101122.22;;;21.06;78.60
57056;BME280;42945;51.718;5.324;2022-08-19T13:30:48;101065.09;;;20.92;82.37
57056;BME280;42945;51.718;5.324;2022-08-19T13:36:54;101077.19;;;21.88;75.40
57056;BME280;42945;51.718;5.324;2022-08-19T13:42:42;101188.16;;;22.56;75.05
57056;BME280;42945;51.718;5.324;2022-08-19T13:48:31;101173.03;;;22.72;74.90
57056;BME280;42945;51.718;5.324;2022-08-19T13:58:21;101189.31;;;23.06;73.89
57056;BME280;42945;51.718;5.324;2022-08-19T14:04:10;101028.34;;;21.99;75.53
57056;BME280;42945;51.718;5.324;2022-08-19T14:09:59;101189.47;;;23.39;73.18
57056;BME280;42945;51.718;5.324;2022-08-19T14:15:46;101154.59;;;23.95;70.90
57056;BME280;42945;51.718;5.324;2022-08-19T14:21:35;101163.78;;;23.51;70.04
57056;BME280;42945;51.718;5.324;2022-08-19T14:27:23;101165.06;;;23.90;70.60
57056;BME280;42945;51.718;5.324;2022-08-19T14:33:12;101182.63;;;23.77;71.70
57056;BME280;42945;51.718;5.324;2022-08-19T14:39:01;101148.09;;;23.71;70.92
57056;BME280;42945;51.718;5.324;2022-08-19T14:44:49;101154.56;;;24.03;69.63
57056;BME280;42945;51.718;5.324;2022-08-19T14:50:39;101052.31;;;23.48;67.48
57056;BME280;42945;51.718;5.324;2022-08-19T15:00:23;101164.38;;;23.21;69.86
57056;BME280;42945;51.718;5.324;2022-08-19T15:06:10;101161.88;;;23.35;71.91
57056;BME280;42945;51.718;5.324;2022-08-19T15:11:58;101189.31;;;22.54;74.40
57056;BME280;42945;51.718;5.324;2022-08-19T15:17:48;101207.81;;;22.05;76.32
57056;BME280;42945;51.718;5.324;2022-08-19T15:23:43;101072.41;;;21.28;78.32
57056;BME280;42945;51.718;5.324;2022-08-19T15:29:32;101022.38;;;21.15;81.71
57056;BME280;42945;51.718;5.324;2022-08-19T15:35:22;101165.41;;;21.23;85.28
57056;BME280;42945;51.718;5.324;2022-08-19T15:41:23;101179.59;;;20.98;89.44
57056;BME280;42945;51.718;5.324;2022-08-19T15:47:12;101191.19;;;21.36;89.18
57056;BME280;42945;51.718;5.324;2022-08-19T15:53:05;101198.69;;;20.57;91.71
57056;BME280;42945;51.718;5.324;2022-08-19T16:06:37;101194.69;;;20.81;96.44
57056;BME280;42945;51.718;5.324;2022-08-19T16:12:26;101179.41;;;20.62;96.68
57056;BME280;42945;51.718;5.324;2022-08-19T16:18:16;101094.06;;;20.43;96.93
57056;BME280;42945;51.718;5.324;2022-08-19T16:24:05;101040.81;;;20.27;94.86
57056;BME280;42945;51.718;5.324;2022-08-19T16:29:54;101382.69;;;22.30;92.20
57056;BME280;42945;51.718;5.324;2022-08-19T16:35:41;101191.03;;;20.62;94.90
57056;BME280;42945;51.718;5.324;2022-08-19T16:41:29;101035.75;;;20.04;93.35
57056;BME280;42945;51.718;5.324;2022-08-19T16:47:16;101221.06;;;20.87;91.44
57056;BME280;42945;51.718;5.324;2022-08-19T16:53:06;101090.56;;;20.33;92.48
57056;BME280;42945;51.718;5.324;2022-08-19T17:02:19;101196.75;;;20.20;93.12
57056;BME280;42945;51.718;5.324;2022-08-19T17:08:12;101118.78;;;19.41;95.19
57056;BME280;42945;51.718;5.324;2022-08-19T17:14:00;101181.44;;;20.21;95.97
57056;BME280;42945;51.718;5.324;2022-08-19T17:19:49;101219.97;;;20.60;96.32
57056;BME280;42945;51.718;5.324;2022-08-19T17:25:38;101332.56;;;21.90;91.97
57056;BME280;42945;51.718;5.324;2022-08-19T17:31:28;101105.75;;;21.27;88.12
57056;BME280;42945;51.718;5.324;2022-08-19T17:37:16;101155.78;;;21.49;86.30
57056;BME280;42945;51.718;5.324;2022-08-19T17:43:05;101166.16;;;20.88;92.60
57056;BME280;42945;51.718;5.324;2022-08-19T17:48:55;101283.38;;;20.84;94.66
57056;BME280;42945;51.718;5.324;2022-08-19T17:54:44;101202.94;;;20.50;96.77
57056;BME280;42945;51.718;5.324;2022-08-19T18:00:33;101195.88;;;20.00;96.69
57056;BME280;42945;51.718;5.324;2022-08-19T18:06:20;101121.84;;;19.36;100.00
57056;BME280;42945;51.718;5.324;2022-08-19T18:12:10;101099.19;;;19.10;100.00
57056;BME280;42945;51.718;5.324;2022-08-19T18:17:58;101194.69;;;19.64;99.79
57056;BME280;42945;51.718;5.324;2022-08-19T18:23:46;101125.53;;;18.85;100.00
57056;BME280;42945;51.718;5.324;2022-08-19T18:29:36;101232.59;;;19.41;99.54
57056;BME280;42945;51.718;5.324;2022-08-19T18:35:29;101210.78;;;19.04;100.00
57056;BME280;42945;51.718;5.324;2022-08-19T18:41:18;101272.38;;;19.17;100.00
57056;BME280;42945;51.718;5.324;2022-08-19T18:47:28;101224.25;;;18.83;100.00
57056;BME280;42945;51.718;5.324;2022-08-19T18:53:37;101263.25;;;18.98;100.00
57056;BME280;42945;51.718;5.324;2022-08-19T18:59:30;101309.78;;;19.51;100.00
57056;BME280;42945;51.718;5.324;2022-08-19T19:11:48;101276.16;;;18.51;100.00
57056;BME280;42945;51.718;5.324;2022-08-19T19:17:41;101358.47;;;19.26;100.00
57056;BME280;42945;51.718;5.324;2022-08-19T19:23:29;101270.47;;;18.44;100.00
57056;BME280;42945;51.718;5.324;2022-08-19T19:29:19;101253.81;;;18.29;100.00
57056;BME280;42945;51.718;5.324;2022-08-19T19:35:08;101289.00;;;18.26;100.00
57056;BME280;42945;51.718;5.324;2022-08-19T19:40:57;101222.84;;;18.25;100.00
57056;BME280;42945;51.718;5.324;2022-08-19T19:46:46;101049.59;;;16.81;100.00
57056;BME280;42945;51.718;5.324;2022-08-19T19:52:35;101102.75;;;16.87;100.00
57056;BME280;42945;51.718;5.324;2022-08-19T19:58:24;101301.31;;;18.18;100.00
57056;BME280;42945;51.718;5.324;2022-08-19T20:04:14;101309.25;;;18.19;100.00
57056;BME280;42945;51.718;5.324;2022-08-19T20:10:03;101283.63;;;18.26;100.00
57056;BME280;42945;51.718;5.324;2022-08-19T20:15:51;101210.09;;;17.63;100.00
57056;BME280;42945;51.718;5.324;2022-08-19T20:21:41;101313.63;;;18.20;100.00
57056;BME280;42945;51.718;5.324;2022-08-19T20:27:30;101184.94;;;17.64;100.00
57056;BME280;42945;51.718;5.324;2022-08-19T20:33:19;101307.41;;;18.20;100.00
57056;BME280;42945;51.718;5.324;2022-08-19T20:39:08;101387.25;;;18.94;100.00
57056;BME280;42945;51.718;5.324;2022-08-19T20:44:56;101294.59;;;18.23;100.00
57056;BME280;42945;51.718;5.324;2022-08-19T20:50:43;101334.31;;;18.41;100.00
57056;BME280;42945;51.718;5.324;2022-08-19T20:56:32;101184.59;;;17.68;100.00
57056;BME280;42945;51.718;5.324;2022-08-19T21:06:11;101291.91;;;18.23;100.00
57056;BME280;42945;51.718;5.324;2022-08-19T21:12:03;101500.06;;;19.48;100.00
57056;BME280;42945;51.718;5.324;2022-08-19T21:17:52;101410.41;;;18.85;100.00
57056;BME280;42945;51.718;5.324;2022-08-19T21:23:40;101238.16;;;18.02;100.00
57056;BME280;42945;51.718;5.324;2022-08-19T21:29:28;101164.41;;;17.42;100.00
57056;BME280;42945;51.718;5.324;2022-08-19T21:35:18;101338.63;;;18.64;100.00
57056;BME280;42945;51.718;5.324;2022-08-19T21:41:06;101306.00;;;18.04;100.00
57056;BME280;42945;51.718;5.324;2022-08-19T21:46:54;101434.41;;;18.54;100.00
57056;BME280;42945;51.718;5.324;2022-08-19T21:52:41;101330.66;;;17.87;100.00
57056;BME280;42945;51.718;5.324;2022-08-19T21:58:29;101324.56;;;17.85;100.00
57056;BME280;42945;51.718;5.324;2022-08-19T22:08:10;101441.25;;;18.47;100.00
57056;BME280;42945;51.718;5.324;2022-08-19T22:14:00;101318.59;;;17.70;100.00
57056;BME280;42945;51.718;5.324;2022-08-19T22:19:49;101212.94;;;17.05;100.00
57056;BME280;42945;51.718;5.324;2022-08-19T22:25:42;101635.13;;;17.70;100.00
57056;BME280;42945;51.718;5.324;2022-08-19T22:31:31;101272.72;;;17.73;100.00
57056;BME280;42945;51.718;5.324;2022-08-19T22:37:20;101336.38;;;17.71;100.00
57056;BME280;42945;51.718;5.324;2022-08-19T22:43:13;101217.81;;;17.22;100.00
57056;BME280;42945;51.718;5.324;2022-08-19T22:49:01;101337.38;;;17.59;100.00
57056;BME280;42945;51.718;5.324;2022-08-19T22:54:53;101220.34;;;17.01;100.00
57056;BME280;42945;51.718;5.324;2022-08-19T23:00:41;101341.25;;;17.77;100.00
57056;BME280;42945;51.718;5.324;2022-08-19T23:10:25;101326.88;;;17.78;100.00
57056;BME280;42945;51.718;5.324;2022-08-19T23:16:15;101233.66;;;17.14;100.00
57056;BME280;42945;51.718;5.324;2022-08-19T23:22:02;101297.88;;;17.72;100.00
57056;BME280;42945;51.718;5.324;2022-08-19T23:27:52;101341.13;;;17.67;100.00
57056;BME280;42945;51.718;5.324;2022-08-19T23:33:59;101221.09;;;17.03;100.00
57056;BME280;42945;51.718;5.324;2022-08-19T23:39:48;101172.97;;;16.79;100.00
57056;BME280;42945;51.718;5.324;2022-08-19T23:45:39;101232.03;;;17.57;100.00
57056;BME280;42945;51.718;5.324;2022-08-19T23:51:27;101326.88;;;17.44;100.00
57056;BME280;42945;51.718;5.324;2022-08-19T23:57:15;101292.00;;;17.44;100.00
